createdAt,value
2018-05-06T00:01:08.534Z,12.90
2018-05-06T00:03:34.947Z,12.90
2018-05-06T00:06:01.386Z,12.80
2018-05-06T00:08:27.830Z,12.70
2018-05-06T00:10:54.253Z,12.60
2018-05-06T00:13:20.658Z,12.50
2018-05-06T00:15:47.819Z,12.50
2018-05-06T00:18:14.224Z,12.50
2018-05-06T00:20:40.634Z,12.50
2018-05-06T00:23:07.781Z,12.50
2018-05-06T00:25:34.185Z,12.50
2018-05-06T00:28:00.586Z,12.50
2018-05-06T00:30:27.742Z,12.50
2018-05-06T00:32:55.610Z,12.50
2018-05-06T00:35:22.058Z,12.50
2018-05-06T00:37:48.472Z,12.50
2018-05-06T00:40:15.625Z,12.50
2018-05-06T00:42:42.081Z,12.40
2018-05-06T00:45:08.512Z,12.40
2018-05-06T00:47:34.949Z,12.50
2018-05-06T00:50:01.365Z,12.40
2018-05-06T00:52:27.777Z,12.40
2018-05-06T00:54:54.937Z,12.40
2018-05-06T00:57:22.121Z,12.40
2018-05-06T00:59:48.538Z,12.40
2018-05-06T01:02:14.959Z,12.40
2018-05-06T01:04:41.519Z,12.30
2018-05-06T01:07:07.998Z,12.40
2018-05-06T01:09:34.402Z,12.30
2018-05-06T01:12:00.817Z,12.30
2018-05-06T01:14:27.229Z,12.30
2018-05-06T01:16:53.626Z,12.30
2018-05-06T01:19:20.137Z,12.40
2018-05-06T01:21:46.541Z,12.30
2018-05-06T01:24:12.976Z,12.20
2018-05-06T01:26:39.381Z,12.20
2018-05-06T01:29:06.529Z,12.20
2018-05-06T01:31:33.706Z,12.20
2018-05-06T01:34:00.121Z,12.20
2018-05-06T01:36:27.261Z,12.10
2018-05-06T01:38:54.406Z,12.20
2018-05-06T01:41:21.553Z,12.20
2018-05-06T01:43:47.957Z,12.20
2018-05-06T01:46:14.373Z,12.20
2018-05-06T01:48:40.785Z,12.20
2018-05-06T01:51:07.181Z,12.20
2018-05-06T01:53:33.582Z,12.20
2018-05-06T01:56:00.062Z,12.20
2018-05-06T01:58:27.237Z,12.10
2018-05-06T02:00:53.741Z,12.10
2018-05-06T02:03:20.096Z,12.10
2018-05-06T02:05:46.522Z,12.00
2018-05-06T02:08:13.672Z,11.90
2018-05-06T02:10:40.829Z,12.00
2018-05-06T02:13:07.234Z,12.00
2018-05-06T02:15:34.415Z,12.00
2018-05-06T02:18:00.861Z,11.90
2018-05-06T02:20:27.273Z,12.00
2018-05-06T02:22:54.425Z,12.00
2018-05-06T02:25:20.829Z,12.00
2018-05-06T02:27:48.254Z,12.00
2018-05-06T02:30:17.054Z,12.00
2018-05-06T02:32:44.249Z,12.00
2018-05-06T02:35:11.409Z,12.10
2018-05-06T02:37:37.822Z,12.00
2018-05-06T02:40:05.017Z,12.10
2018-05-06T02:42:31.434Z,12.00
2018-05-06T02:44:57.838Z,12.10
2018-05-06T02:47:26.050Z,12.10
2018-05-06T02:49:52.473Z,12.10
2018-05-06T02:52:18.898Z,12.10
2018-05-06T02:54:46.098Z,12.00
2018-05-06T02:57:12.502Z,12.00
2018-05-06T02:59:38.930Z,12.00
2018-05-06T03:02:05.375Z,12.00
2018-05-06T03:04:31.773Z,12.00
2018-05-06T03:06:58.201Z,11.90
2018-05-06T03:09:25.370Z,12.00
2018-05-06T03:11:51.773Z,11.90
2018-05-06T03:16:39.769Z,11.90
2018-05-06T03:19:06.185Z,12.00
2018-05-06T03:21:32.597Z,12.00
2018-05-06T03:23:59.763Z,12.00
2018-05-06T03:26:26.198Z,12.00
2018-05-06T03:28:53.614Z,11.90
2018-05-06T03:31:20.019Z,11.90
2018-05-06T03:33:46.439Z,11.90
2018-05-06T03:36:12.844Z,11.90
2018-05-06T03:38:40.061Z,11.90
2018-05-06T03:41:07.473Z,11.90
2018-05-06T03:43:33.922Z,11.90
2018-05-06T03:46:00.333Z,11.90
2018-05-06T03:48:26.730Z,11.90
2018-05-06T03:50:53.881Z,11.70
2018-05-06T03:53:21.033Z,11.70
2018-05-06T03:55:49.189Z,11.70
2018-05-06T03:58:28.013Z,11.60
2018-05-06T04:00:54.455Z,11.60
2018-05-06T04:03:20.861Z,11.60
2018-05-06T04:05:47.326Z,11.60
2018-05-06T04:08:15.485Z,11.60
2018-05-06T04:10:41.881Z,11.50
2018-05-06T04:13:08.282Z,11.60
2018-05-06T04:15:35.429Z,11.70
2018-05-06T04:18:02.585Z,11.60
2018-05-06T04:20:29.737Z,11.60
2018-05-06T04:22:56.162Z,11.60
2018-05-06T04:25:23.309Z,11.60
2018-05-06T04:27:50.465Z,11.70
2018-05-06T04:30:17.633Z,11.70
2018-05-06T04:32:44.061Z,11.70
2018-05-06T04:35:10.467Z,11.80
2018-05-06T04:37:36.857Z,11.80
2018-05-06T04:40:03.273Z,11.90
2018-05-06T04:42:29.669Z,12.00
2018-05-06T04:44:56.817Z,12.20
2018-05-06T04:47:23.219Z,12.20
2018-05-06T04:49:49.632Z,12.40
2018-05-06T04:52:16.049Z,12.40
2018-05-06T04:54:42.505Z,12.60
2018-05-06T04:57:09.261Z,12.70
2018-05-06T04:59:36.645Z,12.80
2018-05-06T05:02:03.793Z,12.80
2018-05-06T05:04:30.197Z,12.80
2018-05-06T05:06:56.604Z,13.00
2018-05-06T05:09:23.018Z,13.10
2018-05-06T05:11:49.413Z,13.30
2018-05-06T05:14:15.830Z,13.30
2018-05-06T05:16:42.238Z,13.40
2018-05-06T05:19:08.629Z,13.40
2018-05-06T05:21:35.781Z,13.50
2018-05-06T05:24:03.961Z,13.60
2018-05-06T05:26:30.368Z,13.60
2018-05-06T05:28:56.777Z,13.70
2018-05-06T05:31:23.189Z,13.90
2018-05-06T05:33:49.614Z,13.90
2018-05-06T05:36:16.025Z,13.90
2018-05-06T05:38:43.188Z,13.80
2018-05-06T05:41:10.337Z,14.00
2018-05-06T05:43:38.533Z,14.10
2018-05-06T05:46:05.993Z,14.00
2018-05-06T05:48:32.406Z,14.20
2018-05-06T05:50:59.566Z,14.30
2018-05-06T05:53:25.968Z,14.20
2018-05-06T05:55:52.370Z,14.30
2018-05-06T05:58:18.780Z,14.30
2018-05-06T06:00:45.212Z,14.50
2018-05-06T06:03:11.614Z,14.60
2018-05-06T06:05:38.766Z,14.80
2018-05-06T06:08:05.205Z,14.80
2018-05-06T06:10:31.613Z,14.90
2018-05-06T06:12:58.012Z,14.90
2018-05-06T06:15:24.421Z,15.10
2018-05-06T06:17:50.839Z,15.10
2018-05-06T06:20:17.268Z,15.20
2018-05-06T06:22:43.690Z,15.20
2018-05-06T06:25:10.105Z,15.30
2018-05-06T06:27:36.509Z,15.40
2018-05-06T06:30:02.946Z,15.50
2018-05-06T06:32:29.358Z,15.60
2018-05-06T06:34:55.757Z,15.70
2018-05-06T06:37:22.913Z,16.00
2018-05-06T06:39:49.334Z,15.90
2018-05-06T06:42:16.482Z,15.90
2018-05-06T06:44:44.657Z,15.90
2018-05-06T06:47:11.813Z,15.80
2018-05-06T06:49:38.961Z,16.10
2018-05-06T06:52:06.121Z,16.20
2018-05-06T06:54:32.516Z,16.10
2018-05-06T06:56:58.956Z,16.30
2018-05-06T06:59:25.373Z,16.50
2018-05-06T07:01:51.773Z,16.70
2018-05-06T07:04:18.190Z,17.00
2018-05-06T07:06:44.626Z,17.40
2018-05-06T07:09:11.037Z,17.30
2018-05-06T07:11:38.205Z,17.60
2018-05-06T07:14:04.641Z,17.60
2018-05-06T07:16:31.040Z,17.20
2018-05-06T07:18:57.441Z,17.50
2018-05-06T07:21:23.850Z,17.50
2018-05-06T07:23:51.234Z,17.50
2018-05-06T07:26:17.629Z,17.70
2018-05-06T07:28:44.049Z,17.60
2018-05-06T07:31:11.218Z,17.60
2018-05-06T07:33:37.623Z,17.50
2018-05-06T07:36:04.820Z,17.70
2018-05-06T07:38:31.277Z,17.70
2018-05-06T07:40:58.685Z,17.70
2018-05-06T07:43:25.107Z,17.80
2018-05-06T07:45:52.298Z,18.30
2018-05-06T07:48:19.789Z,18.30
2018-05-06T07:50:46.190Z,18.40
2018-05-06T07:53:12.608Z,18.50
2018-05-06T07:55:39.046Z,18.50
2018-05-06T07:58:05.466Z,18.70
2018-05-06T08:00:38.834Z,18.90
2018-05-06T08:03:06.032Z,19.10
2018-05-06T08:05:32.437Z,19.00
2018-05-06T08:07:59.585Z,19.40
2018-05-06T08:10:28.710Z,19.70
2018-05-06T08:12:55.119Z,19.60
2018-05-06T08:15:22.293Z,19.70
2018-05-06T08:17:48.696Z,19.70
2018-05-06T08:20:15.842Z,19.50
2018-05-06T08:22:42.990Z,19.60
2018-05-06T08:25:10.149Z,20.00
2018-05-06T08:27:37.333Z,20.00
2018-05-06T08:30:03.778Z,20.00
2018-05-06T08:32:31.202Z,20.00
2018-05-06T08:34:57.613Z,20.20
2018-05-06T08:37:24.018Z,20.00
2018-05-06T08:39:50.417Z,20.20
2018-05-06T08:42:17.865Z,20.40
2018-05-06T08:44:44.257Z,20.60
2018-05-06T08:47:10.674Z,20.50
2018-05-06T08:49:37.091Z,20.50
2018-05-06T08:52:04.551Z,20.40
2018-05-06T08:54:30.982Z,20.40
2018-05-06T08:56:57.390Z,20.60
2018-05-06T08:59:23.829Z,20.70
2018-05-06T09:01:50.236Z,20.70
2018-05-06T09:04:17.387Z,20.80
2018-05-06T09:06:44.542Z,21.20
2018-05-06T09:09:10.994Z,21.10
2018-05-06T09:11:37.402Z,21.30
2018-05-06T09:14:05.537Z,21.30
2018-05-06T09:16:31.993Z,21.30
2018-05-06T09:18:58.445Z,21.50
2018-05-06T09:21:25.585Z,21.70
2018-05-06T09:23:52.719Z,21.90
2018-05-06T09:26:19.689Z,21.80
2018-05-06T09:28:46.842Z,22.10
2018-05-06T09:31:13.279Z,22.10
2018-05-06T09:33:39.822Z,22.30
2018-05-06T09:36:06.253Z,22.40
2018-05-06T09:38:32.645Z,22.40
2018-05-06T09:40:59.049Z,22.10
2018-05-06T09:43:26.162Z,22.20
2018-05-06T09:45:52.611Z,22.30
2018-05-06T09:48:19.042Z,22.30
2018-05-06T09:50:46.387Z,22.50
2018-05-06T09:53:12.798Z,22.30
2018-05-06T09:55:39.954Z,22.40
2018-05-06T09:58:07.099Z,22.50
2018-05-06T10:00:41.934Z,22.50
2018-05-06T10:03:09.094Z,22.50
2018-05-06T10:05:35.503Z,22.50
2018-05-06T10:08:02.681Z,22.90
2018-05-06T10:10:29.105Z,22.90
2018-05-06T10:12:55.537Z,23.00
2018-05-06T10:15:22.669Z,23.30
2018-05-06T10:17:49.069Z,23.30
2018-05-06T10:20:15.478Z,23.40
2018-05-06T10:22:41.873Z,23.40
2018-05-06T10:25:09.017Z,23.50
2018-05-06T10:27:36.181Z,23.60
2018-05-06T10:30:03.335Z,23.70
2018-05-06T10:32:31.489Z,23.60
2018-05-06T10:34:58.630Z,23.70
2018-05-06T10:37:26.061Z,23.60
2018-05-06T10:39:53.502Z,23.70
2018-05-06T10:42:20.000Z,23.70
2018-05-06T10:44:46.398Z,23.60
2018-05-06T10:47:13.574Z,23.60
2018-05-06T10:49:40.722Z,23.80
2018-05-06T10:52:07.870Z,23.70
2018-05-06T10:54:35.038Z,23.80
2018-05-06T10:57:02.187Z,23.80
2018-05-06T10:59:29.330Z,23.90
2018-05-06T11:01:56.526Z,23.90
2018-05-06T11:04:22.916Z,23.90
2018-05-06T11:06:50.086Z,24.20
2018-05-06T11:09:16.486Z,24.20
2018-05-06T11:11:43.638Z,24.20
2018-05-06T11:14:10.782Z,24.30
2018-05-06T11:16:37.175Z,24.20
2018-05-06T11:19:03.589Z,24.60
2018-05-06T11:21:30.001Z,24.70
2018-05-06T11:23:56.409Z,24.70
2018-05-06T11:26:22.886Z,24.90
2018-05-06T11:28:49.241Z,25.00
2018-05-06T11:31:15.645Z,24.90
2018-05-06T11:33:42.119Z,25.10
2018-05-06T11:36:08.526Z,25.00
2018-05-06T11:38:34.942Z,24.80
2018-05-06T11:41:01.440Z,24.80
2018-05-06T11:43:27.822Z,24.90
2018-05-06T11:45:54.219Z,25.10
2018-05-06T11:48:21.706Z,25.00
2018-05-06T11:50:48.239Z,25.00
2018-05-06T11:53:14.651Z,25.20
2018-05-06T11:55:41.785Z,25.40
2018-05-06T11:58:08.178Z,25.40
2018-05-06T12:00:34.607Z,25.60
2018-05-06T12:03:01.001Z,25.50
2018-05-06T12:05:28.517Z,25.30
2018-05-06T12:07:54.926Z,25.50
2018-05-06T12:10:21.321Z,25.50
2018-05-06T12:12:48.461Z,25.80
2018-05-06T12:15:15.623Z,25.90
2018-05-06T12:17:42.782Z,25.90
2018-05-06T12:20:09.199Z,25.80
2018-05-06T12:22:36.333Z,25.90
2018-05-06T12:25:02.800Z,25.90
2018-05-06T12:27:29.199Z,26.10
2018-05-06T12:29:56.623Z,26.40
2018-05-06T12:32:23.029Z,26.80
2018-05-06T12:34:49.465Z,27.40
2018-05-06T12:37:15.857Z,27.80
2018-05-06T12:39:43.005Z,28.70
2018-05-06T12:42:10.181Z,29.10
2018-05-06T12:44:37.321Z,30.00
2018-05-06T12:47:04.553Z,30.70
2018-05-06T12:49:31.020Z,30.60
2018-05-06T12:51:57.408Z,31.30
2018-05-06T12:54:23.802Z,31.70
2018-05-06T12:56:50.189Z,32.30
2018-05-06T12:59:17.336Z,32.80
2018-05-06T13:01:43.733Z,32.80
2018-05-06T13:04:10.155Z,33.30
2018-05-06T13:06:36.578Z,33.30
2018-05-06T13:09:03.034Z,33.40
2018-05-06T13:11:29.487Z,33.20
2018-05-06T13:13:55.891Z,33.10
2018-05-06T13:16:22.313Z,33.30
2018-05-06T13:18:48.724Z,33.90
2018-05-06T13:21:15.871Z,34.70
2018-05-06T13:23:43.034Z,34.60
2018-05-06T13:26:09.445Z,34.60
2018-05-06T13:28:36.578Z,34.60
2018-05-06T13:31:02.977Z,34.50
2018-05-06T13:33:30.137Z,34.30
2018-05-06T13:35:56.572Z,34.40
2018-05-06T13:38:24.102Z,34.60
2018-05-06T13:40:50.530Z,34.50
2018-05-06T13:43:17.022Z,34.70
2018-05-06T13:45:44.414Z,34.90
2018-05-06T13:48:10.821Z,34.80
2018-05-06T13:50:37.237Z,35.20
2018-05-06T13:53:03.654Z,35.30
2018-05-06T13:55:30.097Z,35.00
2018-05-06T13:57:56.527Z,35.00
2018-05-06T14:00:23.727Z,34.50
2018-05-06T14:02:50.138Z,34.40
2018-05-06T14:05:17.314Z,34.30
2018-05-06T14:07:43.731Z,34.30
2018-05-06T14:10:10.862Z,34.40
2018-05-06T14:12:38.050Z,33.90
2018-05-06T14:15:05.433Z,33.80
2018-05-06T14:17:32.902Z,34.20
2018-05-06T14:20:00.631Z,34.40
2018-05-06T14:22:29.023Z,34.20
2018-05-06T14:24:58.516Z,34.10
2018-05-06T14:27:28.759Z,33.80
2018-05-06T14:29:55.271Z,33.70
2018-05-06T14:32:21.811Z,34.10
2018-05-06T14:34:48.889Z,34.80
2018-05-06T14:37:16.538Z,35.30
2018-05-06T14:39:42.942Z,35.00
2018-05-06T14:42:09.782Z,34.80
2018-05-06T14:44:36.200Z,34.80
2018-05-06T14:47:15.698Z,34.70
2018-05-06T14:49:42.374Z,34.70
2018-05-06T14:52:09.571Z,35.40
2018-05-06T14:54:35.979Z,35.40
2018-05-06T14:57:03.435Z,35.30
2018-05-06T14:59:31.038Z,34.90
2018-05-06T15:01:57.538Z,34.90
2018-05-06T15:04:23.933Z,35.20
2018-05-06T15:06:51.098Z,34.70
2018-05-06T15:09:17.509Z,34.70
2018-05-06T15:11:44.653Z,35.10
2018-05-06T15:14:11.830Z,35.60
2018-05-06T15:16:40.793Z,35.10
2018-05-06T15:19:08.294Z,35.10
2018-05-06T15:21:34.698Z,34.80
2018-05-06T15:24:01.901Z,34.50
2018-05-06T15:26:28.421Z,34.50
2018-05-06T15:28:54.873Z,34.40
2018-05-06T15:31:21.310Z,34.50
2018-05-06T15:33:48.291Z,34.60
2018-05-06T15:36:15.434Z,34.20
2018-05-06T15:38:42.321Z,34.20
2018-05-06T15:41:08.702Z,34.10
2018-05-06T15:43:35.854Z,35.00
2018-05-06T15:46:02.362Z,35.00
2018-05-06T15:48:29.698Z,35.10
2018-05-06T15:50:56.131Z,35.10
2018-05-06T15:53:23.493Z,35.00
2018-05-06T15:55:51.187Z,35.10
2018-05-06T15:58:20.678Z,35.00
2018-05-06T16:00:48.640Z,34.80
2018-05-06T16:03:29.408Z,34.80
2018-05-06T16:05:56.210Z,34.50
2018-05-06T16:08:23.403Z,34.40
2018-05-06T16:10:49.810Z,34.40
2018-05-06T16:13:16.197Z,34.20
2018-05-06T16:15:42.702Z,34.30
2018-05-06T16:18:09.058Z,34.00
2018-05-06T16:20:35.546Z,33.50
2018-05-06T16:23:01.931Z,33.80
2018-05-06T16:25:29.130Z,34.10
2018-05-06T16:27:55.518Z,34.20
2018-05-06T16:30:21.909Z,34.50
2018-05-06T16:32:48.269Z,34.50
2018-05-06T16:35:14.646Z,34.90
2018-05-06T16:37:41.962Z,34.90
2018-05-06T16:40:09.326Z,34.80
2018-05-06T16:42:36.485Z,33.70
2018-05-06T16:45:03.675Z,33.40
2018-05-06T16:47:30.049Z,33.30
2018-05-06T16:49:56.441Z,33.50
2018-05-06T16:52:22.813Z,33.80
2018-05-06T16:54:49.209Z,34.30
2018-05-06T16:57:15.982Z,34.00
2018-05-06T16:59:42.344Z,33.40
2018-05-06T17:02:09.477Z,33.10
2018-05-06T17:04:35.858Z,33.10
2018-05-06T17:07:02.299Z,32.40
2018-05-06T17:09:28.678Z,32.60
2018-05-06T17:11:55.146Z,32.60
2018-05-06T17:14:21.605Z,31.90
2018-05-06T17:16:49.063Z,31.30
2018-05-06T17:19:16.145Z,30.60
2018-05-06T17:21:42.804Z,29.50
2018-05-06T17:24:09.203Z,28.90
2018-05-06T17:26:35.590Z,28.70
2018-05-06T17:29:02.058Z,28.40
2018-05-06T17:31:28.463Z,28.50
2018-05-06T17:33:57.246Z,28.40
2018-05-06T17:36:24.918Z,27.80
2018-05-06T17:38:51.286Z,26.80
2018-05-06T17:41:17.661Z,25.90
2018-05-06T17:43:44.755Z,25.20
2018-05-06T17:46:12.641Z,23.90
2018-05-06T17:48:39.444Z,23.90
2018-05-06T17:51:06.201Z,23.30
2018-05-06T17:53:32.738Z,22.80
2018-05-06T17:56:00.174Z,22.40
2018-05-06T17:58:26.538Z,22.00
2018-05-06T18:00:53.560Z,21.80
2018-05-06T18:03:20.007Z,21.60
2018-05-06T18:05:46.375Z,21.50
2018-05-06T18:08:13.648Z,21.20
2018-05-06T18:10:40.754Z,20.80
2018-05-06T18:13:07.988Z,20.70
2018-05-06T18:15:34.406Z,20.60
2018-05-06T18:18:04.811Z,20.40
2018-05-06T18:20:31.204Z,20.30
2018-05-06T18:22:57.582Z,20.00
2018-05-06T18:25:25.871Z,18.50
2018-05-06T18:27:52.302Z,19.50
2018-05-06T18:30:18.702Z,19.30
2018-05-06T18:32:46.730Z,19.00
2018-05-06T18:35:14.067Z,19.00
2018-05-06T18:37:41.475Z,18.80
2018-05-06T18:40:07.873Z,18.60
2018-05-06T18:42:34.262Z,18.50
2018-05-06T18:45:01.406Z,18.30
2018-05-06T18:47:28.276Z,18.20
2018-05-06T18:49:54.730Z,18.20
2018-05-06T18:52:21.138Z,18.10
2018-05-06T18:54:48.019Z,18.00
2018-05-06T18:57:16.486Z,17.80
2018-05-06T18:59:42.922Z,17.80
2018-05-06T19:02:10.118Z,17.60
2018-05-06T19:04:37.992Z,17.50
2018-05-06T19:07:06.165Z,17.40
2018-05-06T19:09:34.172Z,17.40
2018-05-06T19:12:01.190Z,17.30
2018-05-06T19:14:28.316Z,17.10
2018-05-06T19:16:55.435Z,17.10
2018-05-06T19:19:21.844Z,17.00
2018-05-06T19:21:52.632Z,16.90
2018-05-06T19:24:19.354Z,16.80
2018-05-06T19:26:45.776Z,16.50
2018-05-06T19:29:12.762Z,16.30
2018-05-06T19:31:39.896Z,16.00
2018-05-06T19:34:07.222Z,15.90
2018-05-06T19:36:35.092Z,15.80
2018-05-06T19:39:01.499Z,15.60
2018-05-06T19:41:28.500Z,15.40
2018-05-06T19:43:54.902Z,15.30
2018-05-06T19:46:22.428Z,15.10
2018-05-06T19:48:48.842Z,15.00
2018-05-06T19:51:15.965Z,14.90
2018-05-06T19:53:42.679Z,14.80
2018-05-06T19:56:10.146Z,14.80
2018-05-06T19:58:36.572Z,14.70
2018-05-06T20:01:03.742Z,14.50
2018-05-06T20:03:30.123Z,14.50
2018-05-06T20:05:56.563Z,14.40
2018-05-06T20:08:22.995Z,14.40
2018-05-06T20:10:50.363Z,14.40
2018-05-06T20:13:17.627Z,14.50
2018-05-06T20:15:45.146Z,14.50
2018-05-06T20:18:12.246Z,14.50
2018-05-06T20:20:38.642Z,14.50
2018-05-06T20:23:05.075Z,14.50
2018-05-06T20:25:31.498Z,14.50
2018-05-06T20:27:57.912Z,14.50
2018-05-06T20:30:24.690Z,14.50
2018-05-06T20:32:51.136Z,14.50
2018-05-06T20:35:17.546Z,14.60
2018-05-06T20:37:44.475Z,14.50
2018-05-06T20:40:12.383Z,14.50
2018-05-06T20:42:38.758Z,14.40
2018-05-06T20:45:06.331Z,14.40
2018-05-06T20:47:34.399Z,14.40
2018-05-06T20:50:01.451Z,14.40
2018-05-06T20:52:27.870Z,14.40
2018-05-06T20:54:55.026Z,14.40
2018-05-06T20:57:23.173Z,14.40
2018-05-06T20:59:49.670Z,14.30
2018-05-06T21:02:16.049Z,14.40
2018-05-06T21:04:43.403Z,14.30
2018-05-06T21:07:09.910Z,14.20
2018-05-06T21:09:36.302Z,14.30
2018-05-06T21:12:03.650Z,14.20
2018-05-06T21:14:31.696Z,14.10
2018-05-06T21:16:58.082Z,14.10
2018-05-06T21:19:25.589Z,14.10
2018-05-06T21:21:51.965Z,14.00
2018-05-06T21:24:19.017Z,14.00
2018-05-06T21:26:45.443Z,13.90
2018-05-06T21:29:13.602Z,14.00
2018-05-06T21:31:39.987Z,13.90
2018-05-06T21:34:07.037Z,13.90
2018-05-06T21:36:34.078Z,13.90
2018-05-06T21:39:01.228Z,13.90
2018-05-06T21:41:27.554Z,13.80
2018-05-06T21:43:54.696Z,13.70
2018-05-06T21:46:21.078Z,13.70
2018-05-06T21:48:48.461Z,13.80
2018-05-06T21:51:14.830Z,13.80
2018-05-06T21:53:41.926Z,13.70
2018-05-06T21:56:08.482Z,13.80
2018-05-06T21:58:35.877Z,13.80
2018-05-06T22:01:02.269Z,13.70
2018-05-06T22:03:29.681Z,13.70
2018-05-06T22:05:56.812Z,13.60
2018-05-06T22:08:23.217Z,13.60
2018-05-06T22:10:49.926Z,13.60
2018-05-06T22:13:16.329Z,13.60
2018-05-06T22:15:42.716Z,13.60
2018-05-06T22:18:09.125Z,13.60
2018-05-06T22:20:35.503Z,13.40
2018-05-06T22:23:02.927Z,13.40
2018-05-06T22:25:29.323Z,13.40
2018-05-06T22:27:56.470Z,13.40
2018-05-06T22:30:22.839Z,13.40
2018-05-06T22:32:49.269Z,13.30
2018-05-06T22:35:15.669Z,13.30
2018-05-06T22:37:42.797Z,13.20
2018-05-06T22:40:09.198Z,13.20
2018-05-06T22:42:35.645Z,13.20
2018-05-06T22:45:02.179Z,13.20
2018-05-06T22:47:28.589Z,13.10
2018-05-06T22:49:54.998Z,13.00
2018-05-06T22:52:21.363Z,13.00
2018-05-06T22:54:47.815Z,12.90
2018-05-06T22:57:14.242Z,12.90
2018-05-06T22:59:40.649Z,12.90
2018-05-06T23:02:07.082Z,12.80
2018-05-06T23:04:33.461Z,12.80
2018-05-06T23:06:59.842Z,12.70
2018-05-06T23:09:26.232Z,12.60
2018-05-06T23:11:52.605Z,12.60
2018-05-06T23:14:19.017Z,12.60
2018-05-06T23:16:46.165Z,12.60
2018-05-06T23:19:13.974Z,12.50
2018-05-06T23:21:40.404Z,12.50
2018-05-06T23:24:06.854Z,12.40
2018-05-06T23:26:33.297Z,12.40
2018-05-06T23:29:00.086Z,12.30
2018-05-06T23:31:27.233Z,12.20
2018-05-06T23:33:54.975Z,12.20
2018-05-06T23:36:21.372Z,12.20
2018-05-06T23:38:47.777Z,12.10
2018-05-06T23:41:14.156Z,12.10
2018-05-06T23:43:40.625Z,12.10
2018-05-06T23:46:06.964Z,12.10
2018-05-06T23:48:33.352Z,12.10
2018-05-06T23:50:59.749Z,12.00
2018-05-06T23:53:26.140Z,12.00
2018-05-06T23:55:52.541Z,12.00
2018-05-06T23:58:18.949Z,11.90
